Date,TemperatureHighF,TemperatureAvgF,TemperatureLowF,DewpointHighF,DewpointAvgF,DewpointLowF,HumidityHigh,HumidityAvg,HumidityLow,PressureMaxIn,PressureMinIn,WindSpeedMaxMPH,WindSpeedAvgMPH,GustSpeedMaxMPH,PrecipitationSumIn
2013-2-1,49,30,16,22,12,4,79,50,23,30.33,30.02,9,3,11,0.00
2013-2-2,63,41,25,32,27,20,84,60,29,30.13,30.03,7,2,10,0.00
2013-2-3,63,47,31,31,26,17,79,48,17,30.17,29.79,7,3,9,0.00
2013-2-4,72,56,41,40,34,28,72,46,21,29.82,29.68,9,3,13,0.00
2013-2-5,75,47,28,43,33,27,93,63,20,29.90,29.77,6,2,9,0.00
2013-2-6,72,51,32,48,39,30,91,66,39,29.92,29.75,10,3,12,0.00
2013-2-7,60,52,43,54,48,38,93,85,70,30.00,29.69,11,4,13,0.02
2013-2-8,58,42,34,38,33,30,89,71,41,30.18,30.00,7,3,12,0.00
2013-2-9,48,42,33,43,36,31,93,81,59,30.03,29.61,9,4,14,0.09
2013-2-10,65,53,34,50,35,21,96,58,21,29.92,29.48,20,7,23,0.12
2013-2-11,58,40,28,28,25,21,85,59,25,30.08,29.91,10,3,11,0.00
2013-2-12,46,39,31,39,31,26,95,76,52,29.99,29.81,12,3,13,0.30
2013-2-13,60,42,33,38,33,28,96,75,33,29.91,29.79,13,4,13,0.01
2013-2-14,64,46,29,36,31,25,87,59,30,30.06,29.82,11,3,14,0.00
2013-2-15,48,36,26,31,19,9,79,53,21,30.27,30.06,14,6,16,0.00
2013-2-16,48,35,23,27,17,8,79,51,22,30.24,29.94,11,4,13,0.00
2013-2-17,74,52,30,32,27,17,75,42,17,29.94,29.62,11,4,17,0.00
2013-2-18,65,54,38,51,38,24,71,54,34,30.01,29.48,23,8,24,0.00
2013-2-19,55,39,24,26,22,19,85,55,26,30.21,30.02,12,3,14,0.00
2013-2-20,39,36,32,34,28,17,95,74,43,30.14,29.88,7,3,8,0.35
2013-2-21,38,35,29,35,33,24,95,92,80,29.87,29.53,16,4,16,0.90
2013-2-22,42,30,21,22,20,17,85,67,42,30.00,29.81,13,2,13,0.00
2013-2-23,53,33,18,25,21,16,91,67,31,29.99,29.81,7,2,10,0.04
2013-2-24,65,43,24,38,31,22,92,66,34,29.83,29.61,11,3,15,0.00
2013-2-25,45,40,34,38,35,31,95,84,65,29.69,29.33,17,6,26,1.06
2013-2-26,41,37,33,33,32,30,96,83,71,29.77,29.35,24,7,24,0.17
2013-2-27,50,39,34,32,29,27,85,70,43,30.00,29.75,15,6,19,0.00
2013-2-28,47,38,29,31,28,25,87,70,51,30.08,29.99,15,6,17,0.00